createdAt,value
2023-05-21T00:01:18.433Z,8.26
2023-05-21T00:03:44.809Z,8.18
2023-05-21T00:06:11.105Z,8.01
2023-05-21T00:08:37.280Z,7.88
2023-05-21T00:11:03.428Z,8.07
2023-05-21T00:13:29.572Z,8.41
2023-05-21T00:15:55.744Z,8.26
2023-05-21T00:18:21.941Z,8.32
2023-05-21T00:20:48.090Z,8.24
2023-05-21T00:23:14.234Z,8.08
2023-05-21T00:25:40.388Z,8.07
2023-05-21T00:28:06.644Z,8.13
2023-05-21T00:30:32.810Z,8.39
2023-05-21T00:32:59.103Z,8.16
2023-05-21T00:35:25.326Z,8.14
2023-05-21T00:37:51.450Z,8.08
2023-05-21T00:40:17.589Z,8.04
2023-05-21T00:42:43.729Z,7.94
2023-05-21T00:45:09.879Z,8.03
2023-05-21T00:47:36.142Z,8.02
2023-05-21T00:50:02.345Z,7.99
2023-05-21T00:52:28.528Z,8.00
2023-05-21T00:54:54.690Z,7.96
2023-05-21T00:57:20.829Z,8.02
2023-05-21T00:59:46.989Z,8.03
2023-05-21T01:02:13.198Z,8.05
2023-05-21T01:04:39.352Z,7.90
2023-05-21T01:07:05.485Z,8.05
2023-05-21T01:09:31.656Z,8.06
2023-05-21T01:11:57.817Z,8.02
2023-05-21T01:14:23.949Z,8.08
2023-05-21T01:16:50.228Z,8.09
2023-05-21T01:19:16.506Z,7.90
2023-05-21T01:21:42.708Z,8.05
2023-05-21T01:24:08.870Z,8.12
2023-05-21T01:26:35.097Z,8.06
2023-05-21T01:29:01.263Z,8.01
2023-05-21T01:31:27.490Z,7.87
2023-05-21T01:33:53.702Z,8.05
2023-05-21T01:36:19.942Z,8.08
2023-05-21T01:38:46.101Z,8.34
2023-05-21T01:41:12.248Z,8.36
2023-05-21T01:43:38.394Z,8.29
2023-05-21T01:46:04.577Z,8.14
2023-05-21T01:48:30.744Z,8.13
2023-05-21T01:50:56.882Z,8.07
2023-05-21T01:53:23.048Z,8.13
2023-05-21T01:55:49.211Z,8.17
2023-05-21T01:58:15.359Z,8.10
2023-05-21T02:00:41.517Z,8.14
2023-05-21T02:03:07.760Z,7.96
2023-05-21T02:05:34.018Z,7.93
2023-05-21T02:08:00.276Z,8.12
2023-05-21T02:10:26.441Z,8.10
2023-05-21T02:12:52.593Z,8.03
2023-05-21T02:15:18.836Z,7.80
2023-05-21T02:17:45.028Z,7.80
2023-05-21T02:20:11.181Z,7.85
2023-05-21T02:22:37.341Z,8.06
2023-05-21T02:25:03.510Z,8.33
2023-05-21T02:27:29.672Z,8.15
2023-05-21T02:29:55.825Z,8.20
2023-05-21T02:32:22.039Z,7.99
2023-05-21T02:34:48.196Z,7.92
2023-05-21T02:37:14.390Z,7.86
2023-05-21T02:39:40.525Z,7.80
2023-05-21T02:42:06.693Z,7.73
2023-05-21T02:44:32.856Z,7.74
2023-05-21T02:46:58.998Z,7.76
2023-05-21T02:49:25.159Z,7.94
2023-05-21T02:51:52.506Z,7.78
2023-05-21T02:54:18.652Z,7.88
2023-05-21T02:56:44.802Z,8.16
2023-05-21T02:59:10.950Z,8.24
2023-05-21T03:01:37.119Z,8.09
2023-05-21T03:04:03.307Z,8.11
2023-05-21T03:06:29.545Z,7.90
2023-05-21T03:08:55.688Z,7.79
2023-05-21T03:11:21.909Z,7.85
2023-05-21T03:13:48.109Z,7.82
2023-05-21T03:16:14.295Z,7.80
2023-05-21T03:18:40.502Z,7.82
2023-05-21T03:21:06.658Z,7.94
2023-05-21T03:23:32.819Z,7.83
2023-05-21T03:25:58.972Z,7.56
2023-05-21T03:28:25.101Z,7.76
2023-05-21T03:30:51.258Z,7.80
2023-05-21T03:33:17.421Z,7.96
2023-05-21T03:35:43.609Z,7.86
2023-05-21T03:38:09.751Z,7.93
2023-05-21T03:40:35.881Z,8.09
2023-05-21T03:43:02.038Z,8.15
2023-05-21T03:45:28.212Z,8.10
2023-05-21T03:47:54.373Z,8.29
2023-05-21T03:50:20.589Z,8.43
2023-05-21T03:52:46.756Z,8.65
2023-05-21T03:55:12.906Z,7.84
2023-05-21T03:57:39.038Z,7.45
2023-05-21T04:00:05.218Z,7.43
2023-05-21T04:02:31.458Z,7.35
2023-05-21T04:04:57.810Z,7.27
2023-05-21T04:07:24.016Z,7.43
2023-05-21T04:09:50.174Z,7.78
2023-05-21T04:12:16.334Z,8.07
2023-05-21T04:14:42.506Z,8.17
2023-05-21T04:17:08.672Z,8.27
2023-05-21T04:19:34.982Z,8.45
2023-05-21T04:22:01.156Z,8.24
2023-05-21T04:24:27.293Z,8.22
2023-05-21T04:26:53.457Z,8.14
2023-05-21T04:29:19.610Z,8.20
2023-05-21T04:31:45.812Z,8.10
2023-05-21T04:34:11.983Z,8.06
2023-05-21T04:36:38.113Z,8.13
2023-05-21T04:39:04.245Z,8.37
2023-05-21T04:41:30.382Z,8.54
2023-05-21T04:43:56.534Z,8.54
2023-05-21T04:46:22.744Z,8.47
2023-05-21T04:48:48.969Z,8.64
2023-05-21T04:51:15.141Z,8.93
2023-05-21T04:53:41.289Z,8.71
2023-05-21T04:56:07.450Z,8.50
2023-05-21T04:58:33.649Z,8.85
2023-05-21T05:00:59.785Z,9.09
2023-05-21T05:03:26.019Z,9.33
2023-05-21T05:05:52.226Z,9.44
2023-05-21T05:08:18.390Z,9.70
2023-05-21T05:10:44.569Z,9.84
2023-05-21T05:13:10.716Z,10.04
2023-05-21T05:15:37.197Z,10.24
2023-05-21T05:18:03.657Z,10.28
2023-05-21T05:20:29.953Z,10.47
2023-05-21T05:22:56.109Z,10.73
2023-05-21T05:25:22.246Z,10.89
2023-05-21T05:27:48.433Z,11.08
2023-05-21T05:30:14.588Z,11.29
2023-05-21T05:32:40.774Z,11.31
2023-05-21T05:35:06.956Z,11.52
2023-05-21T05:37:33.139Z,11.66
2023-05-21T05:39:59.278Z,11.68
2023-05-21T05:42:25.429Z,12.19
2023-05-21T05:44:51.570Z,12.24
2023-05-21T05:47:17.704Z,12.26
2023-05-21T05:49:43.848Z,12.44
2023-05-21T05:52:09.999Z,12.52
2023-05-21T05:54:36.162Z,12.83
2023-05-21T05:57:02.305Z,12.97
2023-05-21T05:59:28.441Z,13.02
2023-05-21T06:01:54.615Z,13.17
2023-05-21T06:04:20.765Z,13.22
2023-05-21T06:06:46.908Z,13.14
2023-05-21T06:09:13.067Z,13.08
2023-05-21T06:11:39.196Z,13.06
2023-05-21T06:14:05.342Z,13.18
2023-05-21T06:16:31.744Z,13.24
2023-05-21T06:18:58.114Z,12.62
2023-05-21T06:21:24.291Z,12.34
2023-05-21T06:23:50.449Z,12.34
2023-05-21T06:26:16.637Z,12.35
2023-05-21T06:28:42.761Z,12.28
2023-05-21T06:31:08.909Z,12.40
2023-05-21T06:33:35.124Z,12.51
2023-05-21T06:36:01.351Z,12.02
2023-05-21T06:38:27.512Z,11.55
2023-05-21T06:40:53.654Z,12.14
2023-05-21T06:43:19.817Z,12.64
2023-05-21T06:45:45.985Z,12.71
2023-05-21T06:48:12.199Z,12.90
2023-05-21T06:50:38.411Z,12.87
2023-05-21T06:53:04.586Z,12.66
2023-05-21T06:55:30.732Z,12.94
2023-05-21T06:57:56.864Z,12.38
2023-05-21T07:00:23.021Z,11.70
2023-05-21T07:02:49.287Z,11.49
2023-05-21T07:05:15.468Z,11.59
2023-05-21T07:07:41.623Z,11.26
2023-05-21T07:10:07.855Z,11.66
2023-05-21T07:12:34.020Z,11.77
2023-05-21T07:15:00.173Z,11.52
2023-05-21T07:17:26.375Z,11.47
2023-05-21T07:19:52.595Z,10.94
2023-05-21T07:22:18.747Z,11.40
2023-05-21T07:24:44.904Z,11.64
2023-05-21T07:27:24.771Z,11.43
2023-05-21T07:29:51.749Z,12.03
2023-05-21T07:32:17.910Z,11.99
2023-05-21T07:34:44.079Z,12.28
2023-05-21T07:37:10.376Z,12.62
2023-05-21T07:39:36.545Z,13.01
2023-05-21T07:42:02.681Z,13.22
2023-05-21T07:44:28.829Z,13.16
2023-05-21T07:46:54.976Z,12.88
2023-05-21T07:49:21.126Z,13.16
2023-05-21T07:51:47.272Z,12.94
2023-05-21T07:54:13.425Z,12.75
2023-05-21T07:56:39.567Z,12.68
2023-05-21T07:59:05.706Z,12.50
2023-05-21T08:01:31.871Z,12.83
2023-05-21T08:03:58.150Z,12.72
2023-05-21T08:06:24.449Z,12.57
2023-05-21T08:08:50.621Z,12.47
2023-05-21T08:11:16.769Z,12.69
2023-05-21T08:13:42.925Z,13.00
2023-05-21T08:16:09.109Z,13.42
2023-05-21T08:18:35.298Z,13.78
2023-05-21T08:21:01.511Z,13.89
2023-05-21T08:23:27.688Z,13.80
2023-05-21T08:25:53.827Z,13.70
2023-05-21T08:28:19.960Z,14.06
2023-05-21T08:30:46.119Z,14.15
2023-05-21T08:33:12.342Z,14.39
2023-05-21T08:35:38.759Z,14.52
2023-05-21T08:38:05.048Z,14.67
2023-05-21T08:40:31.212Z,15.14
2023-05-21T08:42:57.340Z,14.91
2023-05-21T08:45:23.476Z,15.22
2023-05-21T08:47:49.818Z,15.47
2023-05-21T08:50:16.003Z,15.24
2023-05-21T08:52:42.200Z,15.67
2023-05-21T08:55:08.447Z,15.87
2023-05-21T08:57:34.611Z,16.25
2023-05-21T09:00:00.765Z,16.22
2023-05-21T09:02:27.038Z,16.27
2023-05-21T09:04:53.231Z,15.71
2023-05-21T09:07:19.389Z,15.36
2023-05-21T09:09:45.536Z,15.20
2023-05-21T09:12:11.680Z,15.38
2023-05-21T09:14:37.832Z,15.43
2023-05-21T09:17:04.099Z,15.73
2023-05-21T09:19:30.391Z,15.97
2023-05-21T09:21:56.565Z,16.47
2023-05-21T09:24:22.736Z,16.79
2023-05-21T09:26:48.920Z,16.95
2023-05-21T09:29:15.114Z,16.95
2023-05-21T09:31:41.417Z,16.88
2023-05-21T09:34:07.613Z,17.60
2023-05-21T09:36:33.795Z,17.63
2023-05-21T09:38:59.963Z,17.46
2023-05-21T09:41:26.149Z,18.45
2023-05-21T09:43:52.309Z,18.66
2023-05-21T09:46:18.478Z,18.44
2023-05-21T09:48:44.668Z,17.84
2023-05-21T09:51:10.815Z,18.36
2023-05-21T09:53:36.973Z,18.63
2023-05-21T09:56:03.296Z,18.34
2023-05-21T09:58:29.457Z,19.06
2023-05-21T10:00:55.651Z,18.90
2023-05-21T10:03:21.803Z,19.21
2023-05-21T10:05:47.977Z,18.64
2023-05-21T10:08:14.137Z,18.09
2023-05-21T10:10:40.267Z,18.25
2023-05-21T10:13:06.420Z,18.73
2023-05-21T10:15:32.576Z,18.36
2023-05-21T10:17:58.745Z,18.40
2023-05-21T10:20:24.921Z,19.21
2023-05-21T10:22:51.071Z,19.20
2023-05-21T10:25:17.232Z,19.87
2023-05-21T10:27:43.379Z,19.83
2023-05-21T10:30:09.546Z,20.24
2023-05-21T10:32:35.796Z,19.06
2023-05-21T10:35:02.118Z,19.42
2023-05-21T10:37:28.690Z,19.22
2023-05-21T10:39:54.865Z,18.85
2023-05-21T10:42:21.027Z,18.41
2023-05-21T10:44:47.168Z,17.41
2023-05-21T10:47:13.344Z,18.72
2023-05-21T10:49:39.500Z,17.30
2023-05-21T10:52:05.638Z,17.58
2023-05-21T10:54:31.790Z,16.81
2023-05-21T10:56:57.940Z,17.59
2023-05-21T10:59:24.190Z,16.85
2023-05-21T11:01:50.477Z,16.71
2023-05-21T11:04:16.641Z,16.73
2023-05-21T11:06:42.796Z,16.60
2023-05-21T11:09:09.077Z,16.02
2023-05-21T11:11:35.213Z,16.22
2023-05-21T11:14:01.344Z,15.74
2023-05-21T11:16:27.512Z,15.67
2023-05-21T11:18:53.837Z,15.52
2023-05-21T11:21:20.030Z,15.85
2023-05-21T11:23:46.186Z,16.21
2023-05-21T11:26:12.353Z,16.09
2023-05-21T11:28:38.505Z,15.82
2023-05-21T11:31:04.660Z,15.85
2023-05-21T11:33:30.801Z,16.02
2023-05-21T11:35:56.976Z,16.07
2023-05-21T11:38:23.126Z,15.64
2023-05-21T11:40:49.276Z,15.96
2023-05-21T11:43:15.476Z,15.73
2023-05-21T11:45:41.639Z,15.41
2023-05-21T11:48:07.866Z,15.65
2023-05-21T11:50:34.131Z,15.71
2023-05-21T11:53:00.387Z,15.67
2023-05-21T11:55:26.539Z,15.61
2023-05-21T11:57:52.711Z,15.70
2023-05-21T12:00:18.878Z,16.04
2023-05-21T12:02:45.681Z,16.05
2023-05-21T12:05:13.214Z,15.61
2023-05-21T12:07:39.494Z,15.80
2023-05-21T12:10:05.657Z,15.60
2023-05-21T12:12:42.197Z,15.58
2023-05-21T12:15:17.929Z,15.69
2023-05-21T12:17:44.098Z,15.43
2023-05-21T12:20:10.308Z,15.20
2023-05-21T12:22:36.457Z,15.63
2023-05-21T12:25:02.589Z,15.89
2023-05-21T12:27:28.739Z,15.56
2023-05-21T12:29:54.896Z,15.10
2023-05-21T12:32:21.112Z,15.30
2023-05-21T12:34:47.342Z,15.49
2023-05-21T12:37:13.509Z,15.85
2023-05-21T12:39:39.642Z,15.82
2023-05-21T12:42:05.776Z,15.69
2023-05-21T12:44:31.948Z,15.62
2023-05-21T12:46:58.106Z,15.46
2023-05-21T12:49:24.255Z,15.89
2023-05-21T12:51:50.415Z,16.62
2023-05-21T12:54:16.544Z,16.10
2023-05-21T12:56:42.702Z,15.76
2023-05-21T12:59:08.866Z,16.13
2023-05-21T13:01:35.033Z,16.54
2023-05-21T13:04:01.291Z,16.67
2023-05-21T13:06:27.480Z,16.28
2023-05-21T13:08:53.610Z,16.52
2023-05-21T13:11:19.764Z,16.40
2023-05-21T13:13:45.890Z,16.89
2023-05-21T13:16:12.101Z,17.01
2023-05-21T13:18:38.263Z,17.07
2023-05-21T13:21:04.416Z,17.30
2023-05-21T13:23:30.558Z,16.95
2023-05-21T13:25:56.722Z,16.37
2023-05-21T13:28:22.867Z,16.70
2023-05-21T13:30:49.012Z,17.27
2023-05-21T13:33:15.268Z,17.04
2023-05-21T13:35:41.464Z,16.94
2023-05-21T13:38:07.664Z,17.59
2023-05-21T13:40:34.126Z,17.48
2023-05-21T13:43:01.156Z,17.41
2023-05-21T13:45:27.326Z,17.67
2023-05-21T13:47:53.500Z,17.91
2023-05-21T13:50:19.697Z,17.24
2023-05-21T13:52:45.872Z,16.91
2023-05-21T13:55:12.069Z,17.39
2023-05-21T13:57:38.461Z,17.05
2023-05-21T14:00:04.687Z,16.79
2023-05-21T14:02:30.926Z,16.53
2023-05-21T14:04:57.105Z,16.75
2023-05-21T14:07:23.270Z,16.72
2023-05-21T14:09:49.475Z,16.42
2023-05-21T14:12:15.657Z,16.51
2023-05-21T14:14:41.835Z,16.30
2023-05-21T14:17:07.992Z,16.33
2023-05-21T14:19:34.571Z,16.53
2023-05-21T14:22:00.771Z,16.76
2023-05-21T14:24:26.952Z,16.65
2023-05-21T14:26:53.091Z,16.81
2023-05-21T14:29:19.252Z,16.73
2023-05-21T14:31:45.459Z,16.67
2023-05-21T14:34:11.666Z,16.97
2023-05-21T14:36:37.838Z,17.20
2023-05-21T14:39:04.011Z,17.26
2023-05-21T14:41:30.219Z,17.49
2023-05-21T14:43:56.516Z,17.43
2023-05-21T14:46:22.815Z,17.63
2023-05-21T14:48:49.494Z,17.16
2023-05-21T14:51:15.674Z,16.83
2023-05-21T14:53:41.838Z,17.10
2023-05-21T14:56:08.010Z,16.78
2023-05-21T14:58:34.185Z,16.64
2023-05-21T15:01:00.366Z,17.02
2023-05-21T15:03:26.752Z,17.11
2023-05-21T15:05:52.933Z,16.60
2023-05-21T15:08:19.177Z,15.95
2023-05-21T15:10:45.322Z,16.06
2023-05-21T15:13:11.470Z,15.99
2023-05-21T15:15:37.859Z,15.56
2023-05-21T15:18:04.299Z,15.71
2023-05-21T15:20:30.489Z,15.85
2023-05-21T15:23:05.068Z,16.18
2023-05-21T15:25:41.930Z,15.48
2023-05-21T15:28:08.076Z,15.63
2023-05-21T15:30:34.247Z,15.98
2023-05-21T15:33:00.564Z,15.89
2023-05-21T15:35:26.886Z,15.51
2023-05-21T15:37:53.222Z,15.80
2023-05-21T15:40:19.389Z,15.53
2023-05-21T15:42:45.546Z,15.56
2023-05-21T15:45:12.005Z,15.48
2023-05-21T15:47:38.497Z,15.17
2023-05-21T15:50:05.466Z,14.99
2023-05-21T15:52:31.638Z,15.18
2023-05-21T15:54:57.810Z,15.26
2023-05-21T15:57:23.963Z,15.28
2023-05-21T15:59:50.098Z,15.25
2023-05-21T16:02:16.271Z,15.19
2023-05-21T16:04:42.417Z,15.08
2023-05-21T16:07:08.558Z,15.58
2023-05-21T16:09:34.733Z,15.40
2023-05-21T16:12:00.906Z,15.38
2023-05-21T16:14:27.044Z,15.43
2023-05-21T16:16:53.236Z,15.52
2023-05-21T16:19:19.452Z,15.46
2023-05-21T16:21:45.641Z,15.61
2023-05-21T16:24:11.771Z,15.69
2023-05-21T16:26:37.917Z,15.39
2023-05-21T16:29:04.062Z,15.55
2023-05-21T16:31:30.382Z,15.45
2023-05-21T16:33:56.562Z,15.54
2023-05-21T16:36:22.715Z,15.12
2023-05-21T16:38:48.874Z,14.99
2023-05-21T16:41:15.000Z,14.84
2023-05-21T16:43:41.174Z,15.13
2023-05-21T16:46:07.338Z,15.31
2023-05-21T16:48:34.068Z,14.96
2023-05-21T16:51:01.268Z,14.99
2023-05-21T16:53:27.414Z,15.21
2023-05-21T16:55:53.576Z,14.95
2023-05-21T16:58:19.726Z,14.69
2023-05-21T17:00:45.947Z,14.79
2023-05-21T17:03:12.200Z,14.65
2023-05-21T17:05:38.681Z,14.50
2023-05-21T17:08:04.952Z,14.78
2023-05-21T17:10:31.093Z,14.44
2023-05-21T17:12:59.781Z,14.35
2023-05-21T17:15:27.932Z,14.55
2023-05-21T17:17:54.134Z,14.67
2023-05-21T17:20:20.373Z,14.60
2023-05-21T17:22:46.559Z,14.80
2023-05-21T17:25:12.738Z,14.70
2023-05-21T17:27:38.891Z,14.83
2023-05-21T17:30:05.085Z,14.99
2023-05-21T17:32:31.270Z,15.03
2023-05-21T17:34:57.518Z,15.53
2023-05-21T17:37:23.688Z,15.50
2023-05-21T17:39:49.854Z,15.35
2023-05-21T17:42:16.003Z,15.67
2023-05-21T17:44:42.193Z,15.83
2023-05-21T17:47:08.472Z,16.18
2023-05-21T17:49:34.702Z,16.35
2023-05-21T17:52:01.020Z,15.89
2023-05-21T17:54:27.161Z,15.45
2023-05-21T17:56:53.320Z,15.37
2023-05-21T17:59:19.562Z,15.50
2023-05-21T18:01:45.720Z,15.55
2023-05-21T18:04:12.073Z,15.37
2023-05-21T18:06:38.425Z,15.51
2023-05-21T18:09:04.575Z,15.51
2023-05-21T18:11:30.727Z,15.62
2023-05-21T18:13:56.864Z,15.79
2023-05-21T18:16:23.034Z,15.99
2023-05-21T18:18:49.227Z,16.10
2023-05-21T18:21:15.385Z,15.90
2023-05-21T18:23:41.666Z,16.14
2023-05-21T18:26:07.829Z,16.36
2023-05-21T18:28:33.994Z,16.30
2023-05-21T18:31:00.167Z,16.20
2023-05-21T18:33:26.300Z,16.28
2023-05-21T18:35:52.433Z,16.28
2023-05-21T18:38:18.566Z,15.97
2023-05-21T18:40:44.706Z,15.89
2023-05-21T18:43:10.878Z,15.82
2023-05-21T18:45:37.059Z,15.92
2023-05-21T18:48:03.347Z,15.79
2023-05-21T18:50:29.575Z,15.69
2023-05-21T18:52:55.749Z,15.62
2023-05-21T18:55:21.885Z,15.46
2023-05-21T18:57:48.060Z,15.33
2023-05-21T19:00:14.277Z,15.36
2023-05-21T19:02:42.249Z,15.03
2023-05-21T19:05:08.447Z,14.82
2023-05-21T19:07:34.631Z,14.63
2023-05-21T19:10:00.827Z,14.42
2023-05-21T19:12:26.998Z,14.16
2023-05-21T19:14:53.154Z,13.98
2023-05-21T19:17:19.305Z,13.88
2023-05-21T19:19:45.458Z,13.75
2023-05-21T19:22:11.613Z,13.55
2023-05-21T19:24:37.772Z,13.09
2023-05-21T19:27:04.188Z,13.10
2023-05-21T19:29:30.342Z,13.11
2023-05-21T19:31:56.505Z,12.94
2023-05-21T19:34:22.748Z,13.00
2023-05-21T19:36:52.979Z,12.93
2023-05-21T19:39:20.104Z,12.59
2023-05-21T19:41:46.235Z,12.32
2023-05-21T19:44:12.388Z,12.30
2023-05-21T19:46:38.585Z,12.12
2023-05-21T19:49:04.733Z,12.24
2023-05-21T19:51:30.888Z,12.30
2023-05-21T19:53:57.057Z,12.17
2023-05-21T19:56:23.205Z,12.27
2023-05-21T19:58:49.382Z,12.33
2023-05-21T20:01:15.552Z,12.14
2023-05-21T20:03:41.717Z,11.79
2023-05-21T20:06:07.896Z,11.85
2023-05-21T20:08:34.070Z,11.74
2023-05-21T20:11:00.233Z,11.82
2023-05-21T20:13:26.409Z,11.83
2023-05-21T20:15:52.649Z,11.71
2023-05-21T20:18:18.846Z,11.57
2023-05-21T20:20:45.021Z,11.47
2023-05-21T20:23:11.218Z,11.35
2023-05-21T20:25:37.416Z,11.29
2023-05-21T20:28:03.613Z,11.23
2023-05-21T20:30:29.812Z,11.29
2023-05-21T20:32:55.978Z,11.22
2023-05-21T20:35:22.219Z,11.13
2023-05-21T20:37:48.374Z,11.07
2023-05-21T20:40:14.998Z,11.14
2023-05-21T20:42:41.283Z,10.93
2023-05-21T20:45:07.440Z,10.88
2023-05-21T20:47:33.648Z,10.91
2023-05-21T20:49:59.839Z,10.90
2023-05-21T20:52:26.308Z,10.78
2023-05-21T20:54:52.486Z,10.76
2023-05-21T20:57:18.657Z,10.62
2023-05-21T20:59:44.823Z,10.57
2023-05-21T21:02:11.023Z,10.71
2023-05-21T21:04:37.201Z,10.45
2023-05-21T21:07:03.362Z,10.44
2023-05-21T21:09:29.513Z,10.38
2023-05-21T21:11:55.728Z,10.31
2023-05-21T21:14:21.884Z,10.33
2023-05-21T21:16:48.064Z,10.28
2023-05-21T21:19:14.284Z,10.40
2023-05-21T21:21:40.501Z,10.61
2023-05-21T21:24:06.662Z,10.60
2023-05-21T21:26:32.839Z,10.50
2023-05-21T21:28:58.993Z,10.37
2023-05-21T21:31:25.163Z,10.47
2023-05-21T21:33:51.561Z,10.45
2023-05-21T21:36:17.796Z,10.15
2023-05-21T21:38:43.927Z,10.17
2023-05-21T21:41:10.101Z,9.98
2023-05-21T21:43:36.251Z,9.92
2023-05-21T21:46:02.429Z,9.76
2023-05-21T21:48:28.661Z,9.67
2023-05-21T21:50:54.834Z,9.73
2023-05-21T21:53:20.991Z,9.81
2023-05-21T21:55:47.165Z,9.71
2023-05-21T21:58:13.343Z,9.64
2023-05-21T22:00:39.610Z,9.55
2023-05-21T22:03:05.963Z,9.44
2023-05-21T22:05:32.116Z,9.48
2023-05-21T22:07:58.285Z,9.66
2023-05-21T22:10:24.445Z,9.51
2023-05-21T22:12:50.654Z,9.43
2023-05-21T22:15:16.804Z,9.39
2023-05-21T22:17:42.977Z,9.31
2023-05-21T22:20:09.216Z,9.42
2023-05-21T22:22:35.355Z,9.64
2023-05-21T22:25:01.514Z,9.43
2023-05-21T22:27:27.689Z,9.24
2023-05-21T22:29:53.841Z,9.10
2023-05-21T22:32:20.053Z,8.95
2023-05-21T22:34:46.209Z,8.94
2023-05-21T22:37:12.388Z,9.00
2023-05-21T22:39:38.618Z,8.98
2023-05-21T22:42:04.793Z,9.00
2023-05-21T22:44:30.963Z,8.87
2023-05-21T22:46:57.133Z,8.95
2023-05-21T22:49:23.329Z,8.83
2023-05-21T22:51:49.483Z,8.77
2023-05-21T22:54:15.639Z,8.75
2023-05-21T22:56:41.769Z,8.83
2023-05-21T22:59:07.926Z,8.87
2023-05-21T23:01:34.078Z,8.72
2023-05-21T23:04:00.292Z,8.61
2023-05-21T23:06:26.449Z,8.64
2023-05-21T23:08:52.582Z,8.67
2023-05-21T23:11:18.721Z,8.68
2023-05-21T23:13:44.859Z,8.57
2023-05-21T23:16:11.054Z,8.69
2023-05-21T23:18:37.244Z,8.59
2023-05-21T23:21:03.463Z,8.66
2023-05-21T23:23:29.716Z,8.79
2023-05-21T23:25:55.868Z,8.64
2023-05-21T23:28:22.036Z,8.49
2023-05-21T23:30:48.197Z,8.41
2023-05-21T23:33:14.453Z,8.35
2023-05-21T23:35:40.667Z,8.26
2023-05-21T23:38:06.845Z,8.26
2023-05-21T23:40:32.999Z,8.18
2023-05-21T23:42:59.177Z,8.22
2023-05-21T23:45:25.433Z,8.15
2023-05-21T23:47:51.692Z,8.18
2023-05-21T23:50:17.846Z,7.97
2023-05-21T23:52:43.985Z,8.03
2023-05-21T23:55:10.127Z,7.99
2023-05-21T23:57:36.268Z,8.03
